Time;durP1;ratioP1;P1;durP2;ratioP2;P2;SDS_P1;SDS_P2;PMS_P1;PMS_P2;Temp;Humidity;BMP_temperature;BMP_pressure;BME280_temperature;BME280_humidity;BME280_pressure;Samples;Min_cycle;Max_cycle;Signal;HPM_P1;HPM_P2
2023/01/09 00:00:57;;;;;;;65.43;25.48;;;;;;;;;;4974241;28;20066;-69
2023/01/09 00:03:25;;;;;;;66.20;26.73;;;;;;;;;;4974195;28;20481;-69
2023/01/09 00:05:52;;;;;;;72.38;26.90;;;;;;;;;;4974047;28;20043;-69
2023/01/09 00:08:20;;;;;;;74.75;28.52;;;;;;;;;;4973963;28;20039;-69
2023/01/09 00:10:48;;;;;;;72.43;26.75;;;;;;;;;;4974111;28;20118;-69
2023/01/09 00:13:17;;;;;;;69.45;26.65;;;;;;;;;;4973876;28;20046;-69
2023/01/09 00:15:44;;;;;;;69.78;25.83;;;;;;;;;;4973865;28;20042;-69
2023/01/09 00:18:12;;;;;;;72.18;27.13;;;;;;;;;;4973767;28;20074;-69
2023/01/09 00:20:39;;;;;;;77.57;27.00;;;;;;;;;;4973802;28;20449;-69
2023/01/09 00:23:07;;;;;;;68.93;25.42;;;;;;;;;;4973824;28;20541;-69
2023/01/09 00:25:35;;;;;;;57.20;24.70;;;;;;;;;;4974019;28;20082;-69
2023/01/09 00:28:03;;;;;;;64.75;25.80;;;;;;;;;;4973682;28;20043;-69
2023/01/09 00:30:31;;;;;;;65.95;24.85;;;;;;;;;;4972496;28;20436;-69
2023/01/09 00:32:58;;;;;;;70.90;27.00;;;;;;;;;;4973610;28;20552;-69
2023/01/09 00:35:27;;;;;;;68.85;25.63;;;;;;;;;;4973551;28;20159;-69
2023/01/09 00:37:54;;;;;;;80.10;25.13;;;;;;;;;;4973637;28;20117;-69
2023/01/09 00:40:22;;;;;;;60.28;26.23;;;;;;;;;;4973897;28;20100;-69
2023/01/09 00:42:53;;;;;;;62.05;25.17;;;;;;;;;;4973853;28;20101;-69
2023/01/09 00:45:27;;;;;;;70.57;25.10;;;;;;;;;;4973322;28;20051;-69
2023/01/09 00:47:57;;;;;;;69.80;26.48;;;;;;;;;;4973489;28;20046;-69
2023/01/09 00:50:28;;;;;;;78.70;25.83;;;;;;;;;;4973638;28;20062;-69
2023/01/09 00:52:56;;;;;;;70.47;24.42;;;;;;;;;;4973670;28;20039;-69
2023/01/09 00:55:24;;;;;;;67.15;26.30;;;;;;;;;;4973469;28;20126;-69
2023/01/09 00:57:51;;;;;;;66.40;25.02;;;;;;;;;;4973478;28;20058;-67
2023/01/09 01:00:19;;;;;;;95.95;25.20;;;;;;;;;;4973522;28;20453;-69
2023/01/09 01:02:47;;;;;;;115.18;28.90;;;;;;;;;;4972111;28;20396;-70
2023/01/09 01:08:00;;;;;;;74.10;24.65;;;;;;;;;;4973333;28;20046;-68
2023/01/09 01:10:28;;;;;;;92.45;24.42;;;;;;;;;;4973613;28;20042;-68
2023/01/09 01:12:55;;;;;;;86.05;26.35;;;;;;;;;;4973212;28;20125;-68
2023/01/09 01:15:24;;;;;;;84.38;26.40;;;;;;;;;;4973400;28;20046;-68
2023/01/09 01:17:51;;;;;;;76.28;25.95;;;;;;;;;;4973198;28;20070;-68
2023/01/09 01:20:19;;;;;;;77.50;24.60;;;;;;;;;;4973214;28;20043;-68
2023/01/09 01:22:47;;;;;;;63.33;23.42;;;;;;;;;;4973218;28;20039;-68
2023/01/09 01:25:16;;;;;;;72.68;25.60;;;;;;;;;;4973311;28;20118;-68
2023/01/09 01:27:43;;;;;;;76.25;25.38;;;;;;;;;;4973178;28;20050;-68
2023/01/09 01:30:12;;;;;;;70.05;24.40;;;;;;;;;;4971994;28;20061;-68
2023/01/09 01:32:40;;;;;;;65.75;23.88;;;;;;;;;;4973255;28;20070;-68
2023/01/09 01:35:08;;;;;;;81.00;24.95;;;;;;;;;;4973180;28;20217;-68
2023/01/09 01:37:36;;;;;;;89.65;26.63;;;;;;;;;;4975931;28;20034;-68
2023/01/09 01:40:05;;;;;;;64.85;22.70;;;;;;;;;;4976797;28;20050;-68
2023/01/09 01:42:32;;;;;;;67.97;23.10;;;;;;;;;;4976765;28;20038;-68
2023/01/09 01:45:05;;;;;;;91.57;23.73;;;;;;;;;;4976225;28;20051;-68
2023/01/09 01:47:36;;;;;;;80.40;22.17;;;;;;;;;;4976474;28;20141;-68
2023/01/09 01:50:07;;;;;;;81.05;21.50;;;;;;;;;;4976483;28;20042;-68
2023/01/09 01:52:35;;;;;;;59.45;23.25;;;;;;;;;;4976551;28;20402;-68
2023/01/09 01:55:03;;;;;;;75.20;22.98;;;;;;;;;;4975134;28;20047;-68
2023/01/09 01:57:32;;;;;;;53.42;22.48;;;;;;;;;;4976372;28;20097;-68
2023/01/09 02:00:02;;;;;;;80.68;23.05;;;;;;;;;;4975972;28;20125;-68
2023/01/09 02:02:31;;;;;;;65.65;21.10;;;;;;;;;;4976305;28;20043;-68
2023/01/09 02:05:00;;;;;;;52.35;21.60;;;;;;;;;;4976229;28;20129;-68
2023/01/09 02:07:28;;;;;;;61.42;21.77;;;;;;;;;;4976023;28;20070;-68
2023/01/09 02:09:56;;;;;;;62.70;21.52;;;;;;;;;;4974850;28;20560;-68
2023/01/09 02:12:25;;;;;;;68.55;22.65;;;;;;;;;;4975901;28;20082;-68
2023/01/09 02:14:57;;;;;;;75.00;24.17;;;;;;;;;;4974836;28;20126;-68
2023/01/09 02:17:31;;;;;;;66.43;21.67;;;;;;;;;;4975995;28;20043;-68
2023/01/09 02:20:13;;;;;;;67.63;21.35;;;;;;;;;;4975888;28;20145;-68
2023/01/09 02:23:04;;;;;;;59.40;18.10;;;;;;;;;;4975802;28;20118;-68
2023/01/09 02:25:40;;;;;;;48.28;19.63;;;;;;;;;;4957491;28;20059;-68
2023/01/09 02:28:16;;;;;;;78.28;20.60;;;;;;;;;;4974522;28;20567;-68
2023/01/09 02:31:03;;;;;;;74.95;21.45;;;;;;;;;;4975677;28;20045;-68
2023/01/09 02:33:33;;;;;;;60.20;20.40;;;;;;;;;;4975494;28;20047;-68
2023/01/09 02:36:09;;;;;;;72.82;20.48;;;;;;;;;;4975705;28;20051;-68
2023/01/09 02:38:37;;;;;;;73.43;20.38;;;;;;;;;;4975546;28;20043;-68
2023/01/09 02:41:20;;;;;;;67.22;19.92;;;;;;;;;;4975439;28;20117;-68
2023/01/09 02:43:47;;;;;;;79.05;19.85;;;;;;;;;;4974441;28;20197;-68
2023/01/09 02:46:19;;;;;;;50.15;17.92;;;;;;;;;;4975311;28;20093;-68
2023/01/09 02:48:49;;;;;;;49.75;19.42;;;;;;;;;;4974166;28;20039;-68
2023/01/09 02:51:31;;;;;;;61.38;21.67;;;;;;;;;;4975456;28;20038;-68
2023/01/09 02:54:08;;;;;;;44.03;17.98;;;;;;;;;;4975394;28;20042;-68
2023/01/09 02:56:47;;;;;;;59.22;19.85;;;;;;;;;;4975530;28;20062;-68
2023/01/09 02:59:21;;;;;;;64.57;18.90;;;;;;;;;;4975102;28;20054;-68
2023/01/09 03:01:51;;;;;;;51.30;18.63;;;;;;;;;;4975014;28;20074;-68
2023/01/09 03:04:25;;;;;;;68.72;20.40;;;;;;;;;;4975179;28;20047;-69
2023/01/09 03:06:53;;;;;;;63.95;18.77;;;;;;;;;;4975045;28;20102;-69
2023/01/09 03:09:22;;;;;;;84.85;19.10;;;;;;;;;;4974898;28;20046;-69
2023/01/09 03:11:52;;;;;;;42.67;17.52;;;;;;;;;;4975018;28;20035;-69
2023/01/09 03:14:21;;;;;;;50.60;17.77;;;;;;;;;;4974883;28;20134;-69
2023/01/09 03:16:51;;;;;;;59.90;19.60;;;;;;;;;;4974679;28;20073;-68
2023/01/09 03:19:21;;;;;;;49.70;18.73;;;;;;;;;;4974710;28;20050;-68
2023/01/09 03:21:49;;;;;;;57.20;17.88;;;;;;;;;;4974813;28;20420;-69
2023/01/09 03:24:17;;;;;;;46.55;17.15;;;;;;;;;;4973358;28;20085;-69
2023/01/09 03:26:44;;;;;;;58.05;17.75;;;;;;;;;;4974716;28;20049;-68
2023/01/09 03:29:12;;;;;;;56.58;18.20;;;;;;;;;;4974652;28;20046;-68
2023/01/09 03:31:39;;;;;;;39.17;17.73;;;;;;;;;;4973442;28;20038;-68
2023/01/09 03:34:07;;;;;;;49.75;18.35;;;;;;;;;;4974437;28;20493;-69
2023/01/09 03:36:34;;;;;;;53.60;17.92;;;;;;;;;;4974632;28;20441;-68
2023/01/09 03:39:02;;;;;;;47.28;17.27;;;;;;;;;;4973189;28;20131;-68
2023/01/09 03:41:29;;;;;;;59.10;19.33;;;;;;;;;;4974461;28;20053;-68
2023/01/09 03:43:57;;;;;;;44.85;17.38;;;;;;;;;;4974369;28;20163;-68
2023/01/09 03:46:24;;;;;;;66.55;17.73;;;;;;;;;;4974125;28;20046;-69
2023/01/09 03:48:52;;;;;;;47.72;17.10;;;;;;;;;;4974302;28;20047;-68
2023/01/09 03:51:19;;;;;;;50.70;16.65;;;;;;;;;;4972877;28;20053;-69
2023/01/09 03:53:46;;;;;;;62.47;18.63;;;;;;;;;;4974167;28;20456;-69
2023/01/09 03:56:14;;;;;;;43.13;17.67;;;;;;;;;;4974277;28;20046;-69
2023/01/09 03:58:41;;;;;;;47.10;18.88;;;;;;;;;;4973923;28;20097;-69
2023/01/09 04:01:11;;;;;;;77.80;21.48;;;;;;;;;;4974104;28;20117;-69
2023/01/09 04:03:39;;;;;;;108.97;21.45;;;;;;;;;;4973965;28;20050;-69
2023/01/09 04:06:09;;;;;;;67.53;19.30;;;;;;;;;;4974075;28;20374;-70
2023/01/09 04:08:37;;;;;;;63.67;18.05;;;;;;;;;;4973987;28;20064;-68
2023/01/09 04:11:04;;;;;;;73.00;17.98;;;;;;;;;;4973852;28;20450;-68
2023/01/09 04:13:32;;;;;;;65.88;19.60;;;;;;;;;;4973915;28;20054;-69
2023/01/09 04:15:59;;;;;;;58.63;18.13;;;;;;;;;;4973921;28;20133;-68
2023/01/09 04:18:27;;;;;;;40.88;16.58;;;;;;;;;;4973753;28;20054;-69
2023/01/09 04:20:54;;;;;;;44.72;16.95;;;;;;;;;;4973544;28;20063;-69
2023/01/09 04:23:21;;;;;;;79.78;18.73;;;;;;;;;;4973608;28;20101;-69
2023/01/09 04:25:49;;;;;;;51.30;17.85;;;;;;;;;;4973811;28;20349;-68
2023/01/09 04:28:16;;;;;;;76.55;16.85;;;;;;;;;;4973750;28;20039;-69
2023/01/09 04:30:44;;;;;;;47.70;15.75;;;;;;;;;;4973701;28;20051;-69
2023/01/09 04:33:11;;;;;;;50.00;14.95;;;;;;;;;;4973669;28;20481;-68
2023/01/09 04:35:39;;;;;;;45.05;16.50;;;;;;;;;;4973552;28;20074;-69
2023/01/09 04:38:06;;;;;;;50.05;15.63;;;;;;;;;;4973602;28;20070;-69
2023/01/09 04:40:34;;;;;;;68.55;16.80;;;;;;;;;;4973405;28;20542;-69
2023/01/09 04:43:01;;;;;;;64.55;17.40;;;;;;;;;;4973643;28;20094;-68
2023/01/09 04:45:29;;;;;;;76.03;17.48;;;;;;;;;;4973506;28;20061;-68
2023/01/09 04:47:57;;;;;;;72.05;16.65;;;;;;;;;;4973527;28;20053;-68
2023/01/09 04:50:25;;;;;;;69.75;17.08;;;;;;;;;;4973548;28;20043;-69
2023/01/09 04:52:52;;;;;;;66.30;16.63;;;;;;;;;;4954578;28;20071;-70
2023/01/09 04:55:19;;;;;;;53.22;16.23;;;;;;;;;;4954571;28;20118;-68
2023/01/09 04:57:47;;;;;;;77.60;17.50;;;;;;;;;;4953996;28;20063;-69
2023/01/09 05:00:15;;;;;;;62.70;15.27;;;;;;;;;;4954005;28;20383;-70
2023/01/09 05:02:42;;;;;;;61.47;16.17;;;;;;;;;;4954293;28;20093;-69
2023/01/09 05:05:10;;;;;;;55.92;16.75;;;;;;;;;;4954246;28;20051;-69
2023/01/09 05:07:38;;;;;;;68.40;16.35;;;;;;;;;;4952902;28;20047;-69
2023/01/09 05:10:06;;;;;;;38.88;15.40;;;;;;;;;;4954371;28;20102;-69
2023/01/09 05:12:35;;;;;;;67.88;16.85;;;;;;;;;;4956811;28;20039;-69
2023/01/09 05:15:03;;;;;;;68.82;17.40;;;;;;;;;;4957573;28;20094;-68
2023/01/09 05:17:31;;;;;;;89.88;18.00;;;;;;;;;;4957651;28;20481;-69
2023/01/09 05:20:00;;;;;;;77.15;18.17;;;;;;;;;;4957881;28;20066;-69
2023/01/09 05:22:28;;;;;;;74.68;16.13;;;;;;;;;;4957496;28;20110;-69
2023/01/09 05:24:55;;;;;;;66.60;15.00;;;;;;;;;;4957294;28;20090;-69
2023/01/09 05:27:26;;;;;;;75.53;14.40;;;;;;;;;;4957389;28;20043;-69
2023/01/09 05:29:53;;;;;;;46.70;14.02;;;;;;;;;;4955810;28;20081;-69
2023/01/09 05:32:20;;;;;;;64.85;15.20;;;;;;;;;;4955958;29;20081;-69
2023/01/09 05:34:48;;;;;;;69.03;14.77;;;;;;;;;;4956368;28;20398;-69
2023/01/09 05:37:15;;;;;;;63.70;14.57;;;;;;;;;;4955879;29;20047;-69
2023/01/09 05:39:43;;;;;;;51.17;13.88;;;;;;;;;;4956027;29;20065;-69
2023/01/09 05:42:10;;;;;;;71.05;15.00;;;;;;;;;;4956887;28;20135;-70
2023/01/09 05:44:38;;;;;;;97.93;17.85;;;;;;;;;;4956960;28;20191;-69
2023/01/09 05:47:05;;;;;;;53.92;14.95;;;;;;;;;;4956939;28;20052;-70
2023/01/09 05:49:33;;;;;;;49.13;15.18;;;;;;;;;;4956967;28;20046;-69
2023/01/09 05:52:00;;;;;;;75.60;15.88;;;;;;;;;;4957017;28;20118;-69
2023/01/09 05:54:27;;;;;;;84.57;15.32;;;;;;;;;;4955632;29;20049;-69
2023/01/09 05:56:55;;;;;;;50.47;14.35;;;;;;;;;;4956981;28;20078;-69
2023/01/09 05:59:22;;;;;;;47.10;14.23;;;;;;;;;;4956793;28;20043;-70
2023/01/09 06:01:50;;;;;;;35.20;14.05;;;;;;;;;;4957182;28;20551;-68
2023/01/09 06:04:18;;;;;;;49.40;16.15;;;;;;;;;;4956982;28;20043;-69
2023/01/09 06:06:45;;;;;;;68.40;15.25;;;;;;;;;;4957126;29;20071;-68
2023/01/09 06:09:13;;;;;;;46.25;14.68;;;;;;;;;;4956689;28;20130;-68
2023/01/09 06:11:40;;;;;;;69.07;15.93;;;;;;;;;;4954792;29;20505;-68
2023/01/09 06:14:08;;;;;;;58.70;16.33;;;;;;;;;;4956785;28;20058;-68
2023/01/09 06:16:35;;;;;;;84.88;17.88;;;;;;;;;;4956692;28;20043;-68
2023/01/09 06:19:04;;;;;;;80.78;18.63;;;;;;;;;;4955449;28;20493;-69
2023/01/09 06:21:32;;;;;;;70.25;18.02;;;;;;;;;;4956632;28;20035;-68
2023/01/09 06:23:59;;;;;;;51.17;18.17;;;;;;;;;;4956519;28;20055;-68
2023/01/09 06:26:27;;;;;;;82.15;16.38;;;;;;;;;;4956738;28;20050;-68
2023/01/09 06:28:55;;;;;;;67.05;15.60;;;;;;;;;;4956491;28;20043;-68
2023/01/09 06:31:23;;;;;;;72.47;17.52;;;;;;;;;;4956736;28;20126;-68
2023/01/09 06:33:50;;;;;;;64.60;16.45;;;;;;;;;;4956435;28;20122;-68
2023/01/09 06:36:18;;;;;;;58.42;15.35;;;;;;;;;;4956696;28;20067;-68
2023/01/09 06:38:48;;;;;;;102.22;19.67;;;;;;;;;;4956648;28;20383;-68
2023/01/09 06:41:16;;;;;;;102.30;19.00;;;;;;;;;;4956265;28;20047;-68
2023/01/09 06:43:43;;;;;;;59.60;18.65;;;;;;;;;;4955073;29;20062;-68
2023/01/09 06:46:11;;;;;;;47.10;17.92;;;;;;;;;;4954915;29;20083;-68
2023/01/09 06:48:38;;;;;;;62.85;19.25;;;;;;;;;;4956091;28;20122;-68
2023/01/09 06:51:05;;;;;;;57.13;17.83;;;;;;;;;;4956022;28;20078;-68
2023/01/09 06:53:34;;;;;;;71.55;20.90;;;;;;;;;;4956074;28;20398;-69
2023/01/09 06:56:02;;;;;;;86.38;20.23;;;;;;;;;;4955976;28;20051;-69
2023/01/09 06:58:29;;;;;;;62.13;19.85;;;;;;;;;;4954643;28;20047;-69
2023/01/09 07:01:00;;;;;;;93.63;19.90;;;;;;;;;;4955945;28;20043;-69
2023/01/09 07:03:28;;;;;;;70.10;22.55;;;;;;;;;;4956189;28;20393;-68
2023/01/09 07:05:56;;;;;;;77.53;22.67;;;;;;;;;;4955801;28;20101;-68
2023/01/09 07:08:23;;;;;;;52.28;20.35;;;;;;;;;;4954475;28;20461;-69
2023/01/09 07:10:51;;;;;;;49.75;19.55;;;;;;;;;;4955850;28;20043;-68
2023/01/09 07:13:18;;;;;;;62.92;19.25;;;;;;;;;;4955697;28;20549;-68
2023/01/09 07:15:45;;;;;;;61.35;20.00;;;;;;;;;;4955491;28;20047;-68
2023/01/09 07:18:13;;;;;;;50.83;19.52;;;;;;;;;;4954753;29;20070;-68
2023/01/09 07:20:41;;;;;;;53.03;19.73;;;;;;;;;;4955461;28;20513;-67
2023/01/09 07:23:11;;;;;;;52.17;18.90;;;;;;;;;;4955391;28;20077;-68
2023/01/09 07:25:39;;;;;;;55.50;20.20;;;;;;;;;;4955562;28;20502;-68
2023/01/09 07:28:07;;;;;;;52.40;20.52;;;;;;;;;;4955597;28;20114;-68
2023/01/09 07:30:34;;;;;;;49.67;21.65;;;;;;;;;;4955332;28;20090;-68
2023/01/09 07:33:01;;;;;;;69.50;22.55;;;;;;;;;;4955395;28;20073;-68
2023/01/09 07:35:30;;;;;;;54.83;21.35;;;;;;;;;;4954686;28;20442;-68
2023/01/09 07:37:57;;;;;;;68.53;21.67;;;;;;;;;;4954020;29;20039;-68
2023/01/09 07:40:25;;;;;;;66.50;22.90;;;;;;;;;;4955197;28;20043;-69
2023/01/09 07:42:53;;;;;;;61.75;23.27;;;;;;;;;;4955209;28;20070;-69
2023/01/09 07:45:21;;;;;;;62.90;22.60;;;;;;;;;;4954949;28;20055;-68
2023/01/09 07:47:48;;;;;;;85.07;21.98;;;;;;;;;;4955181;28;20482;-69
2023/01/09 07:50:16;;;;;;;53.65;22.00;;;;;;;;;;4955159;28;20051;-69
2023/01/09 07:52:47;;;;;;;56.92;21.23;;;;;;;;;;4955079;28;20039;-68
2023/01/09 07:55:14;;;;;;;73.68;22.27;;;;;;;;;;4955115;28;20605;-68
2023/01/09 07:57:47;;;;;;;71.57;23.48;;;;;;;;;;4955338;28;20039;-68
2023/01/09 08:00:15;;;;;;;78.03;23.17;;;;;;;;;;4955062;28;20393;-68
2023/01/09 08:02:42;;;;;;;59.85;23.15;;;;;;;;;;4955041;28;20042;-68
2023/01/09 08:05:13;;;;;;;77.78;25.23;;;;;;;;;;4954889;28;20378;-68
2023/01/09 08:07:41;;;;;;;95.72;27.52;;;;;;;;;;4954798;28;20054;-68
2023/01/09 08:10:09;;;;;;;84.88;27.73;;;;;;;;;;4954625;28;20094;-69
2023/01/09 08:12:36;;;;;;;83.70;28.30;;;;;;;;;;4954664;28;20043;-68
2023/01/09 08:15:04;;;;;;;84.63;28.63;;;;;;;;;;4954566;28;20098;-69
2023/01/09 08:17:32;;;;;;;73.78;26.23;;;;;;;;;;4954656;28;20050;-69
2023/01/09 08:19:59;;;;;;;71.07;27.80;;;;;;;;;;4953301;29;20079;-69
2023/01/09 08:22:27;;;;;;;75.95;26.25;;;;;;;;;;4954511;28;20510;-68
2023/01/09 08:24:54;;;;;;;64.75;25.88;;;;;;;;;;4953170;28;20141;-69
2023/01/09 08:27:21;;;;;;;71.88;24.83;;;;;;;;;;4954523;28;20043;-68
2023/01/09 08:29:49;;;;;;;64.60;26.90;;;;;;;;;;4954426;28;20053;-68
2023/01/09 08:32:16;;;;;;;59.60;23.88;;;;;;;;;;4954471;28;20050;-69
2023/01/09 08:34:44;;;;;;;59.83;24.05;;;;;;;;;;4954258;28;20502;-68
2023/01/09 08:37:12;;;;;;;63.50;24.90;;;;;;;;;;4954651;28;20574;-69
2023/01/09 08:39:40;;;;;;;58.00;23.55;;;;;;;;;;4954310;28;20485;-69
2023/01/09 08:47:40;;;;;;;64.13;23.88;;;;;;;;;;4957264;28;20070;-69
2023/01/09 08:50:08;;;;;;;63.33;26.65;;;;;;;;;;4956643;29;20399;-68
2023/01/09 08:52:35;;;;;;;60.30;24.60;;;;;;;;;;4958324;28;20054;-69
2023/01/09 08:55:02;;;;;;;59.22;26.27;;;;;;;;;;4958225;28;20118;-69
2023/01/09 08:57:30;;;;;;;69.00;29.65;;;;;;;;;;4958065;28;20048;-69
2023/01/09 08:59:58;;;;;;;69.30;30.30;;;;;;;;;;4958043;28;20055;-69
2023/01/09 09:02:25;;;;;;;72.68;31.35;;;;;;;;;;4958070;28;20035;-69
2023/01/09 09:04:54;;;;;;;71.25;31.40;;;;;;;;;;4958242;28;20457;-69
2023/01/09 09:07:25;;;;;;;69.10;29.85;;;;;;;;;;4957958;28;20054;-69
2023/01/09 09:09:53;;;;;;;62.90;28.30;;;;;;;;;;4957812;28;20039;-68
2023/01/09 09:12:21;;;;;;;60.40;27.35;;;;;;;;;;4957828;28;20094;-68
2023/01/09 09:17:35;;;;;;;76.43;28.10;;;;;;;;;;4957748;28;20047;-69
2023/01/09 09:20:04;;;;;;;67.88;31.63;;;;;;;;;;4957692;28;20091;-69
2023/01/09 09:22:31;;;;;;;69.28;30.08;;;;;;;;;;4957637;28;20118;-69
2023/01/09 09:24:59;;;;;;;72.20;29.38;;;;;;;;;;4957689;28;20118;-68
2023/01/09 09:27:27;;;;;;;72.57;30.35;;;;;;;;;;4957598;28;20039;-69
2023/01/09 09:29:54;;;;;;;68.82;28.25;;;;;;;;;;4957402;28;20114;-68
2023/01/09 09:32:22;;;;;;;67.50;27.83;;;;;;;;;;4956256;29;20049;-69
2023/01/09 09:34:49;;;;;;;62.45;27.67;;;;;;;;;;4957464;28;20039;-68
2023/01/09 09:37:17;;;;;;;60.55;28.48;;;;;;;;;;4957212;28;20453;-68
2023/01/09 09:39:44;;;;;;;70.35;29.52;;;;;;;;;;4957349;28;20044;-68
2023/01/09 09:45:41;;;;;;;62.58;28.55;;;;;;;;;;4957164;28;20114;-68
2023/01/09 09:48:30;;;;;;;65.88;30.23;;;;;;;;;;4955895;29;20051;-68
2023/01/09 09:51:03;;;;;;;61.50;27.52;;;;;;;;;;4957301;28;20051;-68
2023/01/09 09:53:43;;;;;;;63.50;28.20;;;;;;;;;;4957112;28;20043;-68
2023/01/09 09:56:12;;;;;;;64.78;27.80;;;;;;;;;;4956957;28;20055;-68
2023/01/09 09:58:41;;;;;;;56.72;25.95;;;;;;;;;;4956510;28;20076;-68
2023/01/09 10:01:09;;;;;;;48.33;22.33;;;;;;;;;;4955721;29;20047;-68
2023/01/09 10:03:39;;;;;;;45.88;19.95;;;;;;;;;;4956830;28;20137;-68
2023/01/09 10:06:12;;;;;;;43.42;20.60;;;;;;;;;;4956936;28;20099;-68
2023/01/09 10:09:01;;;;;;;48.38;21.27;;;;;;;;;;4955691;29;20035;-68
2023/01/09 10:11:37;;;;;;;48.97;20.73;;;;;;;;;;4956723;28;20035;-68
2023/01/09 10:14:06;;;;;;;49.58;22.50;;;;;;;;;;4957034;28;20397;-68
2023/01/09 10:16:48;;;;;;;54.95;22.02;;;;;;;;;;4956650;28;20047;-68
2023/01/09 10:19:24;;;;;;;55.92;21.92;;;;;;;;;;4956735;28;20043;-68
2023/01/09 10:21:52;;;;;;;54.35;21.02;;;;;;;;;;4956709;28;20070;-68
2023/01/09 10:24:23;;;;;;;47.20;21.40;;;;;;;;;;4957012;28;20475;-68
2023/01/09 10:26:53;;;;;;;44.78;20.50;;;;;;;;;;4956620;28;20073;-69
2023/01/09 10:29:31;;;;;;;48.88;21.80;;;;;;;;;;4956697;28;20402;-69
2023/01/09 10:31:59;;;;;;;48.55;21.63;;;;;;;;;;4956287;29;20098;-69
2023/01/09 10:34:29;;;;;;;50.65;22.85;;;;;;;;;;4955407;29;20393;-69
2023/01/09 10:36:59;;;;;;;52.42;22.88;;;;;;;;;;4956423;28;20047;-69
2023/01/09 10:39:39;;;;;;;49.95;22.77;;;;;;;;;;4955305;29;20043;-68
2023/01/09 10:42:20;;;;;;;52.90;24.58;;;;;;;;;;4956319;28;20040;-68
2023/01/09 10:45:02;;;;;;;60.72;23.63;;;;;;;;;;4955172;29;20051;-67
2023/01/09 10:47:32;;;;;;;51.60;23.88;;;;;;;;;;4956117;28;20063;-69
2023/01/09 10:50:02;;;;;;;52.75;24.88;;;;;;;;;;4956098;28;20043;-69
2023/01/09 10:52:39;;;;;;;54.30;25.55;;;;;;;;;;4956332;28;20047;-69
2023/01/09 10:55:18;;;;;;;58.35;26.15;;;;;;;;;;4956414;28;20039;-69
2023/01/09 10:57:47;;;;;;;59.42;26.35;;;;;;;;;;4954825;28;20053;-68
2023/01/09 11:00:19;;;;;;;57.92;25.88;;;;;;;;;;4956343;28;20043;-69
2023/01/09 11:02:50;;;;;;;56.40;26.33;;;;;;;;;;4954867;29;20047;-68
2023/01/09 11:05:25;;;;;;;64.15;27.45;;;;;;;;;;4955965;28;20039;-69
2023/01/09 11:07:57;;;;;;;62.60;28.63;;;;;;;;;;4955819;28;20039;-68
2023/01/09 11:10:43;;;;;;;61.60;26.17;;;;;;;;;;4955112;28;20031;-69
2023/01/09 11:13:21;;;;;;;57.38;26.55;;;;;;;;;;4955811;28;20090;-69
2023/01/09 11:16:06;;;;;;;64.47;28.10;;;;;;;;;;4955756;28;20051;-69
2023/01/09 11:18:34;;;;;;;67.40;29.52;;;;;;;;;;4955621;28;20070;-69
2023/01/09 11:21:20;;;;;;;68.22;29.50;;;;;;;;;;4955554;28;20075;-69
2023/01/09 11:23:48;;;;;;;74.97;29.63;;;;;;;;;;4955404;28;20035;-69
2023/01/09 11:26:26;;;;;;;69.40;29.98;;;;;;;;;;4955352;28;20078;-69
2023/01/09 11:29:10;;;;;;;68.93;29.60;;;;;;;;;;4955336;28;20047;-69
2023/01/09 11:31:39;;;;;;;69.75;30.90;;;;;;;;;;4955243;28;20053;-69
2023/01/09 11:34:17;;;;;;;76.30;32.83;;;;;;;;;;4955310;28;20035;-69
2023/01/09 11:36:45;;;;;;;69.15;30.15;;;;;;;;;;4954928;28;20054;-69
2023/01/09 11:39:26;;;;;;;67.30;29.85;;;;;;;;;;4954322;28;20079;-69
2023/01/09 11:42:00;;;;;;;66.85;29.70;;;;;;;;;;4955130;28;20106;-68
2023/01/09 11:44:28;;;;;;;51.60;24.37;;;;;;;;;;4955115;28;20128;-69
2023/01/09 11:46:56;;;;;;;56.13;27.73;;;;;;;;;;4955115;28;20273;-69
2023/01/09 11:49:25;;;;;;;55.17;26.33;;;;;;;;;;4955079;28;20454;-69
2023/01/09 11:52:11;;;;;;;65.05;29.38;;;;;;;;;;4954899;28;20058;-69
2023/01/09 11:54:42;;;;;;;67.78;31.77;;;;;;;;;;4955018;28;20043;-68
2023/01/09 11:57:11;;;;;;;63.25;29.23;;;;;;;;;;4954981;28;20142;-69
2023/01/09 11:59:38;;;;;;;58.53;26.52;;;;;;;;;;4954892;28;20528;-69
2023/01/09 12:02:32;;;;;;;59.97;27.45;;;;;;;;;;4954910;28;20505;-69
2023/01/09 12:05:09;;;;;;;51.63;23.60;;;;;;;;;;4953686;29;20047;-69
2023/01/09 12:07:48;;;;;;;51.47;25.48;;;;;;;;;;4954912;28;20043;-69
2023/01/09 12:10:52;;;;;;;51.67;23.27;;;;;;;;;;4954714;28;20051;-68
2023/01/09 12:13:25;;;;;;;53.78;24.65;;;;;;;;;;4952359;29;20051;-69
2023/01/09 12:15:53;;;;;;;47.30;23.30;;;;;;;;;;4954292;28;20061;-68
2023/01/09 12:18:40;;;;;;;49.22;23.95;;;;;;;;;;4954656;28;20071;-69
2023/01/09 12:21:13;;;;;;;53.90;24.15;;;;;;;;;;4954397;28;20082;-69
2023/01/09 12:23:59;;;;;;;51.35;23.38;;;;;;;;;;4954541;28;20471;-68
2023/01/09 12:26:40;;;;;;;55.13;25.20;;;;;;;;;;4954220;28;20047;-69
2023/01/09 12:29:40;;;;;;;51.78;22.63;;;;;;;;;;4954189;28;20050;-68
2023/01/09 12:32:07;;;;;;;48.95;22.77;;;;;;;;;;4952876;28;20091;-68
2023/01/09 12:34:56;;;;;;;48.33;23.13;;;;;;;;;;4954788;28;20043;-68
2023/01/09 12:37:35;;;;;;;54.38;23.95;;;;;;;;;;4954395;28;20383;-68
2023/01/09 12:40:12;;;;;;;44.88;21.85;;;;;;;;;;4953235;28;20047;-68
2023/01/09 12:42:51;;;;;;;48.05;21.77;;;;;;;;;;4954400;28;20502;-68
2023/01/09 12:45:37;;;;;;;48.72;21.42;;;;;;;;;;4954366;28;20537;-69
2023/01/09 12:48:20;;;;;;;51.15;24.05;;;;;;;;;;4954445;28;20572;-69
2023/01/09 12:51:08;;;;;;;51.22;23.40;;;;;;;;;;4952955;28;20062;-69
2023/01/09 12:53:39;;;;;;;74.07;32.80;;;;;;;;;;4954238;28;20446;-68
2023/01/09 12:56:08;;;;;;;68.50;34.25;;;;;;;;;;4954315;28;20042;-69
2023/01/09 12:58:42;;;;;;;49.53;23.40;;;;;;;;;;4954232;28;20513;-69
2023/01/09 13:01:14;;;;;;;43.78;22.35;;;;;;;;;;4954355;28;20054;-69
2023/01/09 13:04:05;;;;;;;47.67;22.15;;;;;;;;;;4954237;28;20486;-69
2023/01/09 13:06:33;;;;;;;51.67;24.65;;;;;;;;;;4953635;29;20062;-69
2023/01/09 13:09:08;;;;;;;45.85;22.77;;;;;;;;;;4954294;28;20090;-69
2023/01/09 13:11:43;;;;;;;48.38;23.83;;;;;;;;;;4954127;28;20047;-69
2023/01/09 13:14:21;;;;;;;52.03;25.55;;;;;;;;;;4954242;29;20413;-69
2023/01/09 13:16:50;;;;;;;47.88;23.65;;;;;;;;;;4954157;28;20051;-69
2023/01/09 13:19:23;;;;;;;47.22;23.85;;;;;;;;;;4952886;29;20580;-69
2023/01/09 13:21:51;;;;;;;47.25;24.17;;;;;;;;;;4954041;28;20047;-69
2023/01/09 13:24:22;;;;;;;48.33;24.17;;;;;;;;;;4953885;28;20050;-69
2023/01/09 13:26:52;;;;;;;49.67;24.88;;;;;;;;;;4953938;28;20413;-69
2023/01/09 13:29:27;;;;;;;43.72;21.70;;;;;;;;;;4952769;29;20126;-69
2023/01/09 13:31:54;;;;;;;43.65;22.60;;;;;;;;;;4953913;28;20089;-69
2023/01/09 13:34:24;;;;;;;45.90;23.75;;;;;;;;;;4957386;28;20401;-69
2023/01/09 13:36:53;;;;;;;47.08;24.48;;;;;;;;;;4957255;28;20055;-68
2023/01/09 13:39:22;;;;;;;45.92;23.50;;;;;;;;;;4957288;28;20052;-69
2023/01/09 13:44:49;;;;;;;47.58;23.65;;;;;;;;;;4957123;28;20051;-68
2023/01/09 13:47:16;;;;;;;39.63;20.95;;;;;;;;;;4956935;28;20058;-69
2023/01/09 13:49:47;;;;;;;44.30;22.48;;;;;;;;;;4956101;29;20118;-68
2023/01/09 13:52:33;;;;;;;44.17;23.90;;;;;;;;;;4956843;28;20075;-69
2023/01/09 13:55:02;;;;;;;47.42;25.02;;;;;;;;;;4957370;28;20407;-69
2023/01/09 13:57:37;;;;;;;51.35;27.55;;;;;;;;;;4956979;28;20098;-69
2023/01/09 14:00:04;;;;;;;;;;;;;;;;;;4957332;28;20050;-69
2023/01/09 14:02:38;;;;;;;45.40;21.52;;;;;;;;;;4957016;28;19923;-68
2023/01/09 14:05:08;;;;;;;40.40;21.33;;;;;;;;;;4957004;28;20058;-69
2023/01/09 14:07:37;;;;;;;43.60;22.13;;;;;;;;;;4956912;28;20127;-69
2023/01/09 14:10:06;;;;;;;46.67;23.20;;;;;;;;;;4957005;28;20051;-69
2023/01/09 14:12:39;;;;;;;47.95;24.98;;;;;;;;;;4956797;28;20051;-69
2023/01/09 14:15:20;;;;;;;45.00;21.58;;;;;;;;;;4956942;28;20450;-69
2023/01/09 14:17:48;;;;;;;44.88;21.65;;;;;;;;;;4955618;28;20055;-69
2023/01/09 14:20:28;;;;;;;52.08;25.20;;;;;;;;;;4956812;28;20519;-68
2023/01/09 14:22:57;;;;;;;72.25;34.28;;;;;;;;;;4956712;28;20039;-68
2023/01/09 14:25:44;;;;;;;89.10;40.83;;;;;;;;;;4956610;28;20535;-69
2023/01/09 14:28:19;;;;;;;47.88;24.85;;;;;;;;;;4955539;29;20039;-69
2023/01/09 14:30:52;;;;;;;44.60;21.67;;;;;;;;;;4956543;28;20043;-69
2023/01/09 14:33:26;;;;;;;57.08;27.88;;;;;;;;;;4956733;28;20146;-69
2023/01/09 14:36:12;;;;;;;62.50;30.85;;;;;;;;;;4955976;28;20051;-70
2023/01/09 14:38:51;;;;;;;55.17;27.05;;;;;;;;;;4956092;28;20082;-71
2023/01/09 14:41:56;;;;;;;56.58;28.98;;;;;;;;;;4955968;28;20035;-70
2023/01/09 14:44:15;;;;;;;61.70;28.95;;;;;;;;;;4956069;28;20105;-68
2023/01/09 14:46:43;;;;;;;76.20;33.95;;;;;;;;;;4955879;28;20130;-69
2023/01/09 14:49:31;;;;;;;111.88;36.70;;;;;;;;;;4956044;28;20039;-70
2023/01/09 14:52:02;;;;;;;85.70;41.47;;;;;;;;;;4955578;28;20058;-70
2023/01/09 14:54:33;;;;;;;79.40;37.50;;;;;;;;;;4955922;28;20098;-70